Time;durP1;ratioP1;P1;durP2;ratioP2;P2;SDS_P1;SDS_P2;PMS_P1;PMS_P2;Temp;Humidity;BMP_temperature;BMP_pressure;BME280_temperature;BME280_humidity;BME280_pressure;Samples;Min_cycle;Max_cycle;Signal;HPM_P1;HPM_P2
2023/07/07 00:01:40;;;;;;;1.75;1.17;;;;;;;;;;5054816;28;20047;-75
2023/07/07 00:04:05;;;;;;;2.25;1.30;;;;;;;;;;5038374;28;20155;-75
2023/07/07 00:06:31;;;;;;;2.33;1.40;;;;;;;;;;5038161;28;20040;-74
2023/07/07 00:08:56;;;;;;;1.25;1.17;;;;;;;;;;5072910;28;20032;-75
2023/07/07 00:11:22;;;;;;;1.52;1.20;;;;;;;;;;5073178;28;20029;-75
2023/07/07 00:13:48;;;;;;;1.48;1.38;;;;;;;;;;5024985;28;20052;-74
2023/07/07 00:16:14;;;;;;;4.00;1.40;;;;;;;;;;5034761;28;20029;-74
2023/07/07 00:18:39;;;;;;;1.60;1.23;;;;;;;;;;5034947;28;20033;-74
2023/07/07 00:21:05;;;;;;;1.92;1.33;;;;;;;;;;5053051;28;20029;-74
2023/07/07 00:23:32;;;;;;;2.22;1.30;;;;;;;;;;5053079;28;20112;-74
2023/07/07 00:26:15;;;;;;;1.67;1.23;;;;;;;;;;5052637;28;20555;-74
2023/07/07 00:28:41;;;;;;;3.08;1.27;;;;;;;;;;5034542;28;20037;-74
2023/07/07 00:31:06;;;;;;;1.38;1.25;;;;;;;;;;5053015;28;20387;-74
2023/07/07 00:33:31;;;;;;;1.30;1.20;;;;;;;;;;5034803;28;20119;-75
2023/07/07 00:35:57;;;;;;;1.98;1.48;;;;;;;;;;5037014;28;20033;-74
2023/07/07 00:38:22;;;;;;;1.55;1.45;;;;;;;;;;5056190;28;20039;-74
2023/07/07 00:40:51;;;;;;;1.77;1.35;;;;;;;;;;5038132;28;20045;-74
2023/07/07 00:43:18;;;;;;;1.50;1.40;;;;;;;;;;5021426;28;20502;-74
2023/07/07 00:45:44;;;;;;;1.63;1.30;;;;;;;;;;5021367;28;20033;-74
2023/07/07 00:48:16;;;;;;;1.67;1.35;;;;;;;;;;5038008;28;20028;-74
2023/07/07 00:51:01;;;;;;;1.40;1.30;;;;;;;;;;5038420;28;20075;-74
2023/07/07 00:53:27;;;;;;;1.40;1.30;;;;;;;;;;5021382;28;20025;-74
2023/07/07 00:55:59;;;;;;;1.30;1.20;;;;;;;;;;5021365;28;20036;-74
2023/07/07 00:58:26;;;;;;;1.50;1.30;;;;;;;;;;5038166;28;20017;-73
2023/07/07 01:01:01;;;;;;;1.70;1.55;;;;;;;;;;5021235;28;20468;-74
2023/07/07 01:03:32;;;;;;;1.45;1.35;;;;;;;;;;5037693;28;20029;-74
2023/07/07 01:06:00;;;;;;;1.95;1.70;;;;;;;;;;5037613;28;20021;-74
2023/07/07 01:08:25;;;;;;;1.65;1.40;;;;;;;;;;5037668;28;20095;-74
2023/07/07 01:10:51;;;;;;;1.50;1.33;;;;;;;;;;5055690;28;20052;-74
2023/07/07 01:13:16;;;;;;;1.85;1.40;;;;;;;;;;5029452;28;20056;-75
2023/07/07 01:15:52;;;;;;;3.03;1.45;;;;;;;;;;5057439;28;20036;-74
2023/07/07 01:18:42;;;;;;;1.50;1.30;;;;;;;;;;5057597;28;20545;-73
2023/07/07 01:21:13;;;;;;;1.48;1.30;;;;;;;;;;5040602;28;20043;-74
2023/07/07 01:24:35;;;;;;;1.95;1.40;;;;;;;;;;5075057;28;20017;-74
2023/07/07 01:27:16;;;;;;;1.38;1.25;;;;;;;;;;4974119;28;20027;-74
2023/07/07 01:29:56;;;;;;;1.30;1.20;;;;;;;;;;5066450;28;20039;-74
2023/07/07 01:32:25;;;;;;;1.40;1.30;;;;;;;;;;5075186;28;20026;-75
2023/07/07 01:34:54;;;;;;;1.45;1.35;;;;;;;;;;5056999;28;20039;-75
2023/07/07 01:37:19;;;;;;;1.73;1.27;;;;;;;;;;5057077;28;20024;-74
2023/07/07 01:39:45;;;;;;;2.80;1.58;;;;;;;;;;5056920;28;20043;-74
2023/07/07 01:42:20;;;;;;;2.08;1.30;;;;;;;;;;5056820;28;20029;-74
2023/07/07 01:45:12;;;;;;;2.08;1.40;;;;;;;;;;5056917;28;20024;-75
2023/07/07 01:47:38;;;;;;;1.92;1.48;;;;;;;;;;5056054;28;20025;-73
2023/07/07 01:50:12;;;;;;;1.98;1.52;;;;;;;;;;5056737;28;20040;-74
2023/07/07 01:52:52;;;;;;;2.35;1.20;;;;;;;;;;5039927;28;20059;-74
2023/07/07 01:55:28;;;;;;;1.52;1.40;;;;;;;;;;5057189;28;20017;-74
2023/07/07 01:57:57;;;;;;;3.05;1.40;;;;;;;;;;5040494;28;20044;-74
2023/07/07 02:00:23;;;;;;;2.17;1.40;;;;;;;;;;5056789;28;20055;-74
2023/07/07 02:02:51;;;;;;;1.67;1.25;;;;;;;;;;5056926;28;20028;-74
2023/07/07 02:05:16;;;;;;;1.42;1.33;;;;;;;;;;5074479;28;20040;-75
2023/07/07 02:07:42;;;;;;;1.52;1.20;;;;;;;;;;5056659;28;20505;-73
2023/07/07 02:10:08;;;;;;;1.77;1.55;;;;;;;;;;5023358;28;20034;-74
2023/07/07 02:12:34;;;;;;;1.45;1.30;;;;;;;;;;5056611;28;20079;-74
2023/07/07 02:14:59;;;;;;;1.98;1.20;;;;;;;;;;5039649;28;20032;-74
2023/07/07 02:17:26;;;;;;;4.57;1.60;;;;;;;;;;5056235;28;20029;-74
2023/07/07 02:19:51;;;;;;;1.52;1.27;;;;;;;;;;5074059;28;20039;-75
2023/07/07 02:22:17;;;;;;;1.65;1.42;;;;;;;;;;5056065;28;20439;-74
2023/07/07 02:24:42;;;;;;;2.50;1.60;;;;;;;;;;5073944;28;20497;-74
2023/07/07 02:27:10;;;;;;;3.38;1.48;;;;;;;;;;5073697;28;20082;-73
2023/07/07 02:29:37;;;;;;;1.98;1.45;;;;;;;;;;5073838;28;20086;-74
2023/07/07 02:32:03;;;;;;;1.77;1.33;;;;;;;;;;5073875;28;20021;-75
2023/07/07 02:34:28;;;;;;;1.45;1.33;;;;;;;;;;5056304;28;20438;-75
2023/07/07 02:36:54;;;;;;;3.55;1.48;;;;;;;;;;5073966;28;20032;-74
2023/07/07 02:39:20;;;;;;;2.00;1.50;;;;;;;;;;5055925;28;20036;-73
2023/07/07 02:41:45;;;;;;;2.75;1.30;;;;;;;;;;5055955;28;20032;-75
2023/07/07 02:44:11;;;;;;;1.42;1.30;;;;;;;;;;5055747;28;20028;-74
2023/07/07 02:46:36;;;;;;;1.55;1.40;;;;;;;;;;5073807;28;20063;-73
2023/07/07 02:49:01;;;;;;;2.08;1.48;;;;;;;;;;5055867;28;20041;-73
2023/07/07 02:51:27;;;;;;;2.20;1.50;;;;;;;;;;5038989;28;20483;-74
2023/07/07 02:53:53;;;;;;;2.28;1.20;;;;;;;;;;5055490;28;20036;-74
2023/07/07 02:56:18;;;;;;;1.50;1.38;;;;;;;;;;5073716;28;20043;-75
2023/07/07 02:58:43;;;;;;;2.00;1.50;;;;;;;;;;5054617;28;20032;-74
2023/07/07 03:01:15;;;;;;;1.45;1.35;;;;;;;;;;5073552;28;20077;-74
2023/07/07 03:03:42;;;;;;;2.00;1.50;;;;;;;;;;5055552;28;20475;-74
2023/07/07 03:06:11;;;;;;;1.73;1.40;;;;;;;;;;5038704;28;20048;-74
2023/07/07 03:08:37;;;;;;;1.83;1.45;;;;;;;;;;5038731;28;20028;-74
2023/07/07 03:11:08;;;;;;;1.67;1.42;;;;;;;;;;5073509;28;20033;-74
2023/07/07 03:13:33;;;;;;;1.75;1.50;;;;;;;;;;5027557;28;20045;-74
2023/07/07 03:16:07;;;;;;;1.52;1.42;;;;;;;;;;5018823;28;20439;-74
2023/07/07 03:18:32;;;;;;;1.83;1.60;;;;;;;;;;5035593;28;20029;-74
2023/07/07 03:20:57;;;;;;;3.88;1.40;;;;;;;;;;5035193;28;20510;-74
2023/07/07 03:23:23;;;;;;;1.48;1.38;;;;;;;;;;5035244;28;20136;-74
2023/07/07 03:25:48;;;;;;;2.08;1.50;;;;;;;;;;5053144;28;20033;-75
2023/07/07 03:28:14;;;;;;;1.50;1.40;;;;;;;;;;5053131;28;20498;-74
2023/07/07 03:30:39;;;;;;;3.10;1.35;;;;;;;;;;5052801;28;20029;-75
2023/07/07 03:33:05;;;;;;;1.60;1.50;;;;;;;;;;5052757;28;20083;-74
2023/07/07 03:35:30;;;;;;;1.75;1.60;;;;;;;;;;5052986;28;20107;-74
2023/07/07 03:37:55;;;;;;;1.50;1.27;;;;;;;;;;5002101;28;20039;-74
2023/07/07 03:40:21;;;;;;;2.33;1.60;;;;;;;;;;5052953;28;20041;-74
2023/07/07 03:42:46;;;;;;;2.42;1.60;;;;;;;;;;5018627;28;20041;-74
2023/07/07 03:45:11;;;;;;;1.67;1.40;;;;;;;;;;5052765;28;20067;-74
2023/07/07 03:47:37;;;;;;;1.90;1.42;;;;;;;;;;5053122;28;20476;-74
2023/07/07 03:50:03;;;;;;;2.00;1.73;;;;;;;;;;5035166;28;20395;-74
2023/07/07 03:52:28;;;;;;;1.50;1.40;;;;;;;;;;5034842;28;20367;-74
2023/07/07 03:54:53;;;;;;;1.95;1.52;;;;;;;;;;5034890;28;20480;-74
2023/07/07 03:57:19;;;;;;;2.00;1.42;;;;;;;;;;5018368;28;20115;-75
2023/07/07 03:59:44;;;;;;;2.03;1.83;;;;;;;;;;5034855;28;20475;-74
2023/07/07 04:02:10;;;;;;;3.10;1.60;;;;;;;;;;5034716;28;20396;-74
2023/07/07 04:04:35;;;;;;;5.80;1.75;;;;;;;;;;5018706;28;20072;-74
2023/07/07 04:07:00;;;;;;;1.95;1.58;;;;;;;;;;5034959;28;20391;-74
2023/07/07 04:09:26;;;;;;;1.48;1.38;;;;;;;;;;5035192;28;20041;-74
2023/07/07 04:11:52;;;;;;;1.92;1.60;;;;;;;;;;5038376;28;20028;-74
2023/07/07 04:14:18;;;;;;;2.15;1.65;;;;;;;;;;5055619;28;20116;-74
2023/07/07 04:16:44;;;;;;;1.45;1.35;;;;;;;;;;5041887;28;20028;-74
2023/07/07 04:19:09;;;;;;;2.22;1.90;;;;;;;;;;5076523;28;20121;-74
2023/07/07 04:21:35;;;;;;;3.65;1.88;;;;;;;;;;5058831;28;20029;-73
2023/07/07 04:24:01;;;;;;;2.38;1.60;;;;;;;;;;5076806;28;20447;-73
2023/07/07 04:26:28;;;;;;;2.85;1.70;;;;;;;;;;5076702;28;20090;-74
2023/07/07 04:28:56;;;;;;;1.60;1.50;;;;;;;;;;5058761;28;20024;-73
2023/07/07 04:31:25;;;;;;;3.85;2.10;;;;;;;;;;5076657;28;20028;-73
2023/07/07 04:33:51;;;;;;;2.50;1.80;;;;;;;;;;5076663;28;20047;-75
2023/07/07 04:36:16;;;;;;;4.57;2.30;;;;;;;;;;5058787;28;20099;-75
2023/07/07 04:38:42;;;;;;;4.72;2.53;;;;;;;;;;5041916;28;20059;-74
2023/07/07 04:41:12;;;;;;;7.22;2.55;;;;;;;;;;5058485;28;20024;-74
2023/07/07 04:43:40;;;;;;;6.20;2.47;;;;;;;;;;5076065;28;20059;-75
2023/07/07 04:46:07;;;;;;;5.68;2.60;;;;;;;;;;5041370;28;20033;-74
2023/07/07 04:48:32;;;;;;;10.10;2.70;;;;;;;;;;5058381;28;20055;-74
2023/07/07 04:50:59;;;;;;;3.97;2.40;;;;;;;;;;5058366;28;20064;-74
2023/07/07 04:53:28;;;;;;;3.53;1.92;;;;;;;;;;5058132;28;20073;-75
2023/07/07 04:55:55;;;;;;;2.20;1.60;;;;;;;;;;5076584;28;20039;-75
2023/07/07 04:58:20;;;;;;;11.32;1.92;;;;;;;;;;5058559;28;20016;-75
2023/07/07 05:00:46;;;;;;;2.95;1.70;;;;;;;;;;5057811;28;20028;-74
2023/07/07 05:03:11;;;;;;;3.45;1.98;;;;;;;;;;5058062;28;20051;-75
2023/07/07 05:05:36;;;;;;;2.28;1.70;;;;;;;;;;5075601;28;20107;-74
2023/07/07 05:08:02;;;;;;;4.70;1.85;;;;;;;;;;5075740;28;20391;-74
2023/07/07 05:10:27;;;;;;;3.90;1.90;;;;;;;;;;5075920;28;20028;-74
2023/07/07 05:12:53;;;;;;;5.90;1.70;;;;;;;;;;5057666;28;20210;-74
2023/07/07 05:15:18;;;;;;;3.03;1.90;;;;;;;;;;5058159;28;20035;-75
2023/07/07 05:17:44;;;;;;;4.93;1.90;;;;;;;;;;5075590;28;20029;-75
2023/07/07 05:20:09;;;;;;;2.47;1.70;;;;;;;;;;5075679;28;20029;-75
2023/07/07 05:22:35;;;;;;;2.47;1.90;;;;;;;;;;5074563;28;20024;-74
2023/07/07 05:25:00;;;;;;;2.47;1.55;;;;;;;;;;5075845;28;20032;-74
2023/07/07 05:27:26;;;;;;;3.03;1.88;;;;;;;;;;5040827;28;20112;-75
2023/07/07 05:29:51;;;;;;;3.22;1.80;;;;;;;;;;5075142;28;20037;-73
2023/07/07 05:32:16;;;;;;;2.95;1.80;;;;;;;;;;5057486;28;20425;-74
2023/07/07 05:34:42;;;;;;;2.75;1.80;;;;;;;;;;5075146;28;20040;-75
2023/07/07 05:37:08;;;;;;;1.80;1.50;;;;;;;;;;5040466;28;20025;-74
2023/07/07 05:39:34;;;;;;;3.10;1.60;;;;;;;;;;5041037;28;20025;-74
2023/07/07 05:41:59;;;;;;;2.88;2.00;;;;;;;;;;5040135;28;20119;-75
2023/07/07 05:44:24;;;;;;;3.90;1.88;;;;;;;;;;5075019;28;20055;-74
2023/07/07 05:46:50;;;;;;;4.28;1.70;;;;;;;;;;5040572;28;20058;-74
2023/07/07 05:49:15;;;;;;;1.77;1.67;;;;;;;;;;5057389;28;20089;-75
2023/07/07 05:51:41;;;;;;;3.13;1.90;;;;;;;;;;5074497;28;20028;-75
2023/07/07 05:54:08;;;;;;;2.45;1.80;;;;;;;;;;5074503;28;20028;-75
2023/07/07 05:56:34;;;;;;;5.55;2.20;;;;;;;;;;5057214;28;20383;-74
2023/07/07 05:58:59;;;;;;;4.93;2.10;;;;;;;;;;5074852;28;20028;-75
2023/07/07 06:01:25;;;;;;;3.78;2.03;;;;;;;;;;5040041;28;20037;-75
2023/07/07 06:03:50;;;;;;;5.43;1.65;;;;;;;;;;5038877;28;20063;-76
2023/07/07 06:06:16;;;;;;;6.47;2.03;;;;;;;;;;5055704;28;20037;-76
2023/07/07 06:08:41;;;;;;;4.57;1.90;;;;;;;;;;5073741;28;20033;-76
2023/07/07 06:11:07;;;;;;;5.57;1.85;;;;;;;;;;5056520;28;20035;-76
2023/07/07 06:13:33;;;;;;;3.13;1.70;;;;;;;;;;5056221;28;20071;-76
2023/07/07 06:15:59;;;;;;;2.97;1.80;;;;;;;;;;5056639;28;20051;-75
2023/07/07 06:18:24;;;;;;;12.23;1.90;;;;;;;;;;5040096;28;20032;-75
2023/07/07 06:20:51;;;;;;;4.82;2.08;;;;;;;;;;5056291;28;20028;-76
2023/07/07 06:23:17;;;;;;;3.50;1.83;;;;;;;;;;5039600;28;20063;-75
2023/07/07 06:25:43;;;;;;;6.15;1.70;;;;;;;;;;5039362;28;20036;-75
2023/07/07 06:28:08;;;;;;;6.43;1.92;;;;;;;;;;5056145;28;20110;-74
2023/07/07 06:30:33;;;;;;;7.38;1.98;;;;;;;;;;5039539;28;20535;-74
2023/07/07 06:32:59;;;;;;;4.03;1.73;;;;;;;;;;5074060;28;20108;-73
2023/07/07 06:35:26;;;;;;;2.55;1.60;;;;;;;;;;5055788;28;20079;-74
2023/07/07 06:37:51;;;;;;;5.20;1.90;;;;;;;;;;5056274;28;20395;-74
2023/07/07 06:40:16;;;;;;;3.60;1.88;;;;;;;;;;5055846;28;20032;-74
2023/07/07 06:42:42;;;;;;;6.43;1.67;;;;;;;;;;5055804;28;20036;-75
2023/07/07 06:45:08;;;;;;;5.88;1.60;;;;;;;;;;5074202;28;20115;-75
2023/07/07 06:47:33;;;;;;;2.85;1.52;;;;;;;;;;5055803;28;20098;-75
2023/07/07 06:49:59;;;;;;;2.58;1.52;;;;;;;;;;5055649;28;20483;-75
2023/07/07 06:52:24;;;;;;;6.40;1.80;;;;;;;;;;5073547;28;20166;-75
2023/07/07 06:54:50;;;;;;;2.60;1.52;;;;;;;;;;5056008;28;20107;-75
2023/07/07 06:57:15;;;;;;;4.68;1.50;;;;;;;;;;5073691;28;20074;-76
2023/07/07 06:59:40;;;;;;;7.38;2.17;;;;;;;;;;5074014;28;20062;-74
2023/07/07 07:02:10;;;;;;;3.13;1.35;;;;;;;;;;5055305;28;20411;-75
2023/07/07 07:04:36;;;;;;;6.95;1.88;;;;;;;;;;5055359;28;20051;-76
2023/07/07 07:07:01;;;;;;;7.90;1.60;;;;;;;;;;5038978;28;20033;-75
2023/07/07 07:09:27;;;;;;;7.22;1.83;;;;;;;;;;5073563;28;20031;-75
2023/07/07 07:11:52;;;;;;;3.00;1.63;;;;;;;;;;5055768;28;20414;-76
2023/07/07 07:14:17;;;;;;;11.77;1.42;;;;;;;;;;5038640;28;20048;-75
2023/07/07 07:16:43;;;;;;;4.85;2.17;;;;;;;;;;5073394;28;20143;-76
2023/07/07 07:19:08;;;;;;;3.15;1.60;;;;;;;;;;5073538;28;20078;-75
2023/07/07 07:21:33;;;;;;;3.13;1.30;;;;;;;;;;5073864;28;20052;-74
2023/07/07 07:23:59;;;;;;;2.70;1.38;;;;;;;;;;5055375;28;20036;-75
2023/07/07 07:26:25;;;;;;;6.47;1.45;;;;;;;;;;5073312;28;20372;-75
2023/07/07 07:28:52;;;;;;;2.72;1.58;;;;;;;;;;5073027;28;20043;-78
2023/07/07 07:31:17;;;;;;;5.78;1.60;;;;;;;;;;5073366;28;20029;-75
2023/07/07 07:33:42;;;;;;;7.35;2.20;;;;;;;;;;5055326;28;20089;-77
2023/07/07 07:36:08;;;;;;;6.93;1.92;;;;;;;;;;5073587;28;20078;-77
2023/07/07 07:38:33;;;;;;;6.07;2.13;;;;;;;;;;5055134;28;20039;-76
2023/07/07 07:40:58;;;;;;;4.45;2.10;;;;;;;;;;5073184;28;20020;-75
2023/07/07 07:43:24;;;;;;;9.88;2.00;;;;;;;;;;5073404;28;20044;-77
2023/07/07 07:45:49;;;;;;;9.13;2.38;;;;;;;;;;5075090;28;20095;-76
2023/07/07 07:48:15;;;;;;;3.90;1.83;;;;;;;;;;5077352;28;20037;-76
2023/07/07 07:50:40;;;;;;;4.55;1.90;;;;;;;;;;5059107;28;20032;-76
2023/07/07 07:53:05;;;;;;;4.57;2.00;;;;;;;;;;5076933;28;20032;-77
2023/07/07 07:55:31;;;;;;;5.38;2.25;;;;;;;;;;5077229;28;20051;-76
2023/07/07 07:57:56;;;;;;;4.40;2.55;;;;;;;;;;5076819;28;20028;-77
2023/07/07 08:00:22;;;;;;;4.57;1.90;;;;;;;;;;5076947;28;20033;-77
2023/07/07 08:02:50;;;;;;;6.32;2.65;;;;;;;;;;5059546;28;20028;-77
2023/07/07 08:05:16;;;;;;;8.35;2.17;;;;;;;;;;5077043;28;20483;-77
2023/07/07 08:07:41;;;;;;;3.08;1.98;;;;;;;;;;5058509;28;20039;-76
2023/07/07 08:10:07;;;;;;;6.07;2.03;;;;;;;;;;5058656;28;20170;-75
2023/07/07 08:12:33;;;;;;;49.47;11.50;;;;;;;;;;5041739;28;20029;-76
2023/07/07 08:14:59;;;;;;;24.25;4.90;;;;;;;;;;5076756;28;20039;-77
2023/07/07 08:17:24;;;;;;;20.77;4.70;;;;;;;;;;5077554;28;20451;-77
2023/07/07 08:19:50;;;;;;;18.05;4.47;;;;;;;;;;5059167;28;20028;-77
2023/07/07 08:22:21;;;;;;;12.18;4.28;;;;;;;;;;5076606;28;20055;-76
2023/07/07 08:24:49;;;;;;;20.38;4.47;;;;;;;;;;5058951;28;20459;-76
2023/07/07 08:27:15;;;;;;;14.15;4.20;;;;;;;;;;5041590;28;20387;-76
2023/07/07 08:29:41;;;;;;;18.02;3.67;;;;;;;;;;5041706;28;20025;-76
2023/07/07 08:32:09;;;;;;;13.02;3.80;;;;;;;;;;5058877;28;20028;-76
2023/07/07 08:34:34;;;;;;;10.07;3.72;;;;;;;;;;5041691;28;20025;-76
2023/07/07 08:37:00;;;;;;;12.05;3.53;;;;;;;;;;5058538;28;20038;-76
2023/07/07 08:39:28;;;;;;;16.92;4.25;;;;;;;;;;5058303;28;20032;-76
2023/07/07 08:42:22;;;;;;;8.88;3.47;;;;;;;;;;5058176;28;20167;-76
2023/07/07 08:44:48;;;;;;;14.05;5.00;;;;;;;;;;5034049;28;20094;-75
2023/07/07 08:47:30;;;;;;;12.65;3.78;;;;;;;;;;5057811;28;20515;-76
2023/07/07 08:50:43;;;;;;;9.45;3.38;;;;;;;;;;5058050;28;20028;-75
2023/07/07 08:53:36;;;;;;;12.32;3.33;;;;;;;;;;5071539;28;20063;-75
2023/07/07 08:56:32;;;;;;;9.48;3.45;;;;;;;;;;5075746;28;20100;-75
2023/07/07 08:59:00;;;;;;;9.98;3.78;;;;;;;;;;5076153;28;20020;-75
2023/07/07 09:01:47;;;;;;;11.05;3.40;;;;;;;;;;5057618;28;20020;-75
2023/07/07 09:04:27;;;;;;;7.78;3.47;;;;;;;;;;5057790;28;20107;-76
2023/07/07 09:07:02;;;;;;;12.88;3.30;;;;;;;;;;5075559;28;20530;-75
2023/07/07 09:10:06;;;;;;;10.23;3.55;;;;;;;;;;5075886;28;20082;-75
2023/07/07 09:12:44;;;;;;;12.15;3.50;;;;;;;;;;5057620;28;20039;-75
2023/07/07 09:15:16;;;;;;;6.68;2.60;;;;;;;;;;5075778;28;20455;-76
2023/07/07 09:17:46;;;;;;;6.85;2.83;;;;;;;;;;5057725;28;20036;-75
2023/07/07 09:20:12;;;;;;;9.88;3.58;;;;;;;;;;5057454;28;20024;-75
2023/07/07 09:22:43;;;;;;;15.98;3.03;;;;;;;;;;5057753;28;20104;-76
2023/07/07 09:25:21;;;;;;;8.55;3.15;;;;;;;;;;5057447;28;20027;-75
2023/07/07 09:27:57;;;;;;;6.85;2.53;;;;;;;;;;5057615;28;20035;-76
2023/07/07 09:30:47;;;;;;;7.55;2.53;;;;;;;;;;5057538;28;20075;-76
2023/07/07 09:33:18;;;;;;;9.77;2.80;;;;;;;;;;4994314;28;20364;-76
2023/07/07 09:36:06;;;;;;;4.35;2.17;;;;;;;;;;5042651;28;20379;-76
2023/07/07 09:39:04;;;;;;;6.32;2.40;;;;;;;;;;5074884;28;20051;-76
2023/07/07 09:41:58;;;;;;;7.82;2.42;;;;;;;;;;5055416;28;20032;-76
2023/07/07 09:44:26;;;;;;;;;;;;;;;;;;5075827;28;20361;-76
2023/07/07 09:47:00;;;;;;;8.23;2.30;;;;;;;;;;5074740;28;19962;-76
2023/07/07 09:49:54;;;;;;;4.93;2.50;;;;;;;;;;5056978;28;20047;-75
2023/07/07 09:52:25;;;;;;;5.22;2.22;;;;;;;;;;5040618;28;20082;-76
2023/07/07 09:54:51;;;;;;;10.55;2.30;;;;;;;;;;5056793;28;20024;-77
2023/07/07 09:57:35;;;;;;;5.80;2.08;;;;;;;;;;5057200;28;20025;-76
2023/07/07 10:00:01;;;;;;;8.50;2.20;;;;;;;;;;5040315;28;20364;-76
2023/07/07 10:02:27;;;;;;;5.43;2.25;;;;;;;;;;5056717;28;20028;-76
2023/07/07 10:05:02;;;;;;;3.13;2.00;;;;;;;;;;5074716;28;20107;-76
2023/07/07 10:07:33;;;;;;;5.18;2.30;;;;;;;;;;5039565;28;20032;-76
2023/07/07 10:10:02;;;;;;;5.38;2.20;;;;;;;;;;5056499;28;20434;-75
2023/07/07 10:12:27;;;;;;;2.92;1.80;;;;;;;;;;5056534;28;20017;-76
2023/07/07 10:14:55;;;;;;;5.95;2.03;;;;;;;;;;5054261;28;20064;-75
2023/07/07 10:17:31;;;;;;;3.72;1.90;;;;;;;;;;5036709;28;20028;-76
2023/07/07 10:19:59;;;;;;;4.32;1.95;;;;;;;;;;5036927;28;20036;-77
2023/07/07 10:22:25;;;;;;;4.45;1.98;;;;;;;;;;5020844;28;20025;-75
2023/07/07 10:24:50;;;;;;;5.70;2.15;;;;;;;;;;5054383;28;20100;-77
2023/07/07 10:27:18;;;;;;;4.88;1.95;;;;;;;;;;5036361;28;20599;-77
2023/07/07 10:29:44;;;;;;;5.68;2.20;;;;;;;;;;5036249;28;20032;-77
2023/07/07 10:32:16;;;;;;;5.45;2.42;;;;;;;;;;5036580;28;20503;-76
2023/07/07 10:34:46;;;;;;;3.92;1.88;;;;;;;;;;5019705;28;20036;-77
2023/07/07 10:37:31;;;;;;;4.38;2.25;;;;;;;;;;5019707;28;20078;-76
2023/07/07 10:39:58;;;;;;;5.40;2.03;;;;;;;;;;5036094;28;20025;-75
2023/07/07 10:42:25;;;;;;;6.03;2.08;;;;;;;;;;5036356;28;20024;-75
2023/07/07 10:44:55;;;;;;;4.80;2.00;;;;;;;;;;5036343;28;20140;-75
2023/07/07 10:47:39;;;;;;;3.28;2.00;;;;;;;;;;5020101;28;20049;-77
2023/07/07 10:50:12;;;;;;;3.75;1.95;;;;;;;;;;5035862;28;20031;-75
2023/07/07 10:52:37;;;;;;;4.63;1.98;;;;;;;;;;5035886;28;20025;-75
2023/07/07 10:55:21;;;;;;;4.68;2.10;;;;;;;;;;5054254;28;20052;-75
2023/07/07 10:58:01;;;;;;;5.93;2.10;;;;;;;;;;5053632;28;20117;-75
2023/07/07 11:01:08;;;;;;;2.60;1.75;;;;;;;;;;5053625;28;20025;-76
2023/07/07 11:03:42;;;;;;;4.35;1.90;;;;;;;;;;4937333;29;20101;-75
2023/07/07 11:06:16;;;;;;;2.33;1.63;;;;;;;;;;4953411;29;20078;-75
2023/07/07 11:09:05;;;;;;;2.65;1.90;;;;;;;;;;4996353;28;20041;-76
2023/07/07 11:12:01;;;;;;;2.65;1.90;;;;;;;;;;5053438;28;20055;-75
2023/07/07 11:15:03;;;;;;;2.78;1.65;;;;;;;;;;5050308;28;20040;-76
2023/07/07 11:17:56;;;;;;;2.80;1.80;;;;;;;;;;5055245;28;20033;-75
2023/07/07 11:21:09;;;;;;;4.25;2.17;;;;;;;;;;5072791;28;20024;-75
2023/07/07 11:24:19;;;;;;;3.35;1.85;;;;;;;;;;5046301;28;20033;-75
2023/07/07 11:27:22;;;;;;;2.92;1.95;;;;;;;;;;5009248;28;20033;-78
2023/07/07 11:30:10;;;;;;;2.42;1.77;;;;;;;;;;5073166;28;20421;-75
2023/07/07 11:33:00;;;;;;;1.83;1.55;;;;;;;;;;5055864;28;20074;-77
2023/07/07 11:35:38;;;;;;;2.95;1.95;;;;;;;;;;5055315;28;20035;-75
2023/07/07 11:38:15;;;;;;;3.25;1.80;;;;;;;;;;5073231;28;20095;-75
2023/07/07 11:41:05;;;;;;;4.97;1.60;;;;;;;;;;5055094;28;20028;-78
2023/07/07 11:43:45;;;;;;;4.03;2.00;;;;;;;;;;5073463;28;20063;-78
2023/07/07 11:46:47;;;;;;;2.42;1.60;;;;;;;;;;5073114;28;20028;-77
2023/07/07 11:49:19;;;;;;;2.80;1.70;;;;;;;;;;5055690;28;20032;-75
2023/07/07 11:51:46;;;;;;;3.85;1.48;;;;;;;;;;5055170;28;20050;-77
2023/07/07 11:54:31;;;;;;;2.92;1.65;;;;;;;;;;5055110;28;20074;-77
2023/07/07 11:57:12;;;;;;;2.65;1.85;;;;;;;;;;5055155;28;20044;-77
2023/07/07 12:00:09;;;;;;;3.22;1.80;;;;;;;;;;5073218;28;20029;-78
2023/07/07 12:03:06;;;;;;;6.00;1.92;;;;;;;;;;5055083;28;20469;-78
2023/07/07 12:05:34;;;;;;;5.10;2.33;;;;;;;;;;4985691;28;20097;-77
2023/07/07 12:08:15;;;;;;;8.40;2.22;;;;;;;;;;5054869;28;20044;-78
2023/07/07 12:11:00;;;;;;;5.95;2.70;;;;;;;;;;5055517;28;20029;-77
2023/07/07 12:13:30;;;;;;;4.97;2.55;;;;;;;;;;5055882;28;20526;-77
2023/07/07 12:16:20;;;;;;;5.57;2.35;;;;;;;;;;5054779;28;20508;-78
2023/07/07 12:18:51;;;;;;;6.43;1.92;;;;;;;;;;5054970;28;20167;-78
2023/07/07 12:21:21;;;;;;;5.75;2.17;;;;;;;;;;5055039;28;20017;-77
2023/07/07 12:24:11;;;;;;;5.95;2.20;;;;;;;;;;5054772;28;20447;-78
2023/07/07 12:26:43;;;;;;;2.35;2.10;;;;;;;;;;5054508;28;20387;-76
2023/07/07 12:29:10;;;;;;;5.47;1.90;;;;;;;;;;5054802;28;20016;-77
2023/07/07 12:31:36;;;;;;;4.03;2.22;;;;;;;;;;5056219;28;20043;-77
2023/07/07 12:34:37;;;;;;;6.60;2.20;;;;;;;;;;5025301;28;20028;-77
2023/07/07 12:37:22;;;;;;;6.38;2.35;;;;;;;;;;4975607;28;20027;-77
2023/07/07 12:39:53;;;;;;;4.15;2.10;;;;;;;;;;4958969;28;20038;-77
2023/07/07 12:42:18;;;;;;;4.47;2.05;;;;;;;;;;4959442;28;20038;-77
2023/07/07 12:44:45;;;;;;;10.32;2.13;;;;;;;;;;4942945;28;20525;-78
2023/07/07 12:47:45;;;;;;;3.63;2.15;;;;;;;;;;4959163;28;20038;-78
2023/07/07 12:50:25;;;;;;;4.90;1.73;;;;;;;;;;4931588;28;20058;-78
2023/07/07 12:52:50;;;;;;;3.78;1.88;;;;;;;;;;4975036;28;20097;-76
2023/07/07 12:55:25;;;;;;;2.70;1.80;;;;;;;;;;4975731;28;20502;-76
2023/07/07 12:57:59;;;;;;;4.63;2.10;;;;;;;;;;4942819;28;20042;-76
2023/07/07 13:00:31;;;;;;;3.97;2.30;;;;;;;;;;4975398;28;20090;-76
2023/07/07 13:03:20;;;;;;;3.22;1.95;;;;;;;;;;4959167;28;20106;-76
2023/07/07 13:05:49;;;;;;;3.63;1.75;;;;;;;;;;4967205;28;20093;-76
2023/07/07 13:08:44;;;;;;;4.57;1.73;;;;;;;;;;4959450;28;20031;-76
2023/07/07 13:11:17;;;;;;;2.60;1.73;;;;;;;;;;5010269;28;20127;-75
2023/07/07 13:13:45;;;;;;;4.78;2.25;;;;;;;;;;5058031;28;20051;-75
2023/07/07 13:16:13;;;;;;;3.47;2.00;;;;;;;;;;5057657;28;20037;-75
2023/07/07 13:18:38;;;;;;;3.08;1.80;;;;;;;;;;5057814;28;20067;-76
2023/07/07 13:21:04;;;;;;;2.85;1.70;;;;;;;;;;5041024;28;20060;-76
2023/07/07 13:23:40;;;;;;;3.22;2.08;;;;;;;;;;5075653;28;20029;-76
2023/07/07 13:26:21;;;;;;;1.88;1.73;;;;;;;;;;5040633;28;20031;-76
2023/07/07 13:28:46;;;;;;;3.60;1.60;;;;;;;;;;5075275;28;20036;-76
2023/07/07 13:31:14;;;;;;;4.07;1.77;;;;;;;;;;5075029;28;20036;-76
2023/07/07 13:33:40;;;;;;;4.38;2.08;;;;;;;;;;5057580;28;20025;-77
2023/07/07 13:36:08;;;;;;;1.63;1.50;;;;;;;;;;5075279;28;20039;-76
2023/07/07 13:38:37;;;;;;;3.55;1.80;;;;;;;;;;5040525;28;20067;-77
2023/07/07 13:41:06;;;;;;;2.95;1.75;;;;;;;;;;5057191;28;20471;-77
2023/07/07 13:43:46;;;;;;;2.72;1.80;;;;;;;;;;5056813;28;20024;-77
2023/07/07 13:46:26;;;;;;;2.45;1.88;;;;;;;;;;5040425;28;20115;-77
2023/07/07 13:48:57;;;;;;;2.10;1.70;;;;;;;;;;5058080;28;20090;-77
2023/07/07 13:51:38;;;;;;;3.00;1.90;;;;;;;;;;5057541;28;20035;-77
2023/07/07 13:54:05;;;;;;;4.38;2.30;;;;;;;;;;5040194;28;20035;-76
2023/07/07 13:56:36;;;;;;;4.50;1.90;;;;;;;;;;5074824;28;20379;-77
2023/07/07 13:59:01;;;;;;;1.70;1.60;;;;;;;;;;5056830;28;20020;-77
2023/07/07 14:01:53;;;;;;;2.72;1.80;;;;;;;;;;5074621;28;20433;-77
2023/07/07 14:04:36;;;;;;;2.60;1.90;;;;;;;;;;5051974;28;20042;-76
2023/07/07 14:07:01;;;;;;;2.50;1.60;;;;;;;;;;5056929;28;20063;-77
2023/07/07 14:09:34;;;;;;;2.47;1.80;;;;;;;;;;5056435;28;20056;-77
2023/07/07 14:12:01;;;;;;;2.45;2.15;;;;;;;;;;5040007;28;20032;-76
2023/07/07 14:14:27;;;;;;;2.28;1.70;;;;;;;;;;5056431;28;20048;-76
2023/07/07 14:17:00;;;;;;;2.13;1.65;;;;;;;;;;5056440;28;20372;-76
2023/07/07 14:19:39;;;;;;;2.88;1.95;;;;;;;;;;5056530;28;20471;-76
2023/07/07 14:22:05;;;;;;;10.73;2.72;;;;;;;;;;5074528;28;20028;-76
2023/07/07 14:24:31;;;;;;;10.13;3.15;;;;;;;;;;5040029;28;20025;-76
2023/07/07 14:26:57;;;;;;;6.38;3.13;;;;;;;;;;5039537;28;20024;-77
2023/07/07 14:29:43;;;;;;;6.88;2.95;;;;;;;;;;5056369;28;20047;-77
2023/07/07 14:32:16;;;;;;;4.60;2.70;;;;;;;;;;5056014;28;20067;-77
2023/07/07 14:34:56;;;;;;;4.97;2.53;;;;;;;;;;5039707;28;20032;-75
2023/07/07 14:37:36;;;;;;;4.20;2.38;;;;;;;;;;5056209;28;20052;-76
2023/07/07 14:40:25;;;;;;;4.35;3.00;;;;;;;;;;5056458;28;20031;-76
2023/07/07 14:42:51;;;;;;;4.95;2.70;;;;;;;;;;5073983;28;20024;-76
2023/07/07 14:45:25;;;;;;;4.50;2.63;;;;;;;;;;5039147;28;20462;-76
2023/07/07 14:47:51;;;;;;;3.90;2.72;;;;;;;;;;5037649;28;20036;-76
2023/07/07 14:50:17;;;;;;;5.80;2.72;;;;;;;;;;5057651;28;20374;-76
2023/07/07 14:52:46;;;;;;;6.70;2.70;;;;;;;;;;5039203;28;20119;-76
2023/07/07 14:55:14;;;;;;;5.07;2.55;;;;;;;;;;5056011;28;20028;-76
2023/07/07 14:57:43;;;;;;;3.72;2.45;;;;;;;;;;5056016;28;20016;-76
2023/07/07 15:00:27;;;;;;;4.63;2.80;;;;;;;;;;5055582;28;20035;-76
2023/07/07 15:02:52;;;;;;;4.20;2.35;;;;;;;;;;5055556;28;20123;-75
2023/07/07 15:05:28;;;;;;;3.40;2.28;;;;;;;;;;5039092;28;20559;-76
2023/07/07 15:07:55;;;;;;;4.53;2.30;;;;;;;;;;5055432;28;20403;-76